TimeCST,TemperatureF,Dew PointF,Humidity,Sea Level PressureIn,VisibilityMPH,Wind Direction,Wind SpeedMPH,Gust SpeedMPH,PrecipitationIn,Events,Conditions,WindDirDegrees,DateUTC
12:13 AM,6.8,3.2,85,30.15,10.0,WNW,13.8,19.6,N/A,Snow,Light Snow,290,2012-11-28 06:13:00
12:32 AM,6.8,3.2,85,30.15,10.0,WNW,11.5,18.4,N/A,Snow,Light Snow,300,2012-11-28 06:32:00
12:53 AM,6.8,3.2,85,30.16,7.0,WNW,5.8,-,N/A,Snow,Light Snow,290,2012-11-28 06:53:00
1:13 AM,6.8,3.2,85,30.16,7.0,WNW,12.7,18.4,N/A,Snow,Light Snow,300,2012-11-28 07:13:00
1:32 AM,6.8,3.2,85,30.15,10.0,WNW,10.4,16.1,N/A,Snow,Light Snow,290,2012-11-28 07:32:00
1:53 AM,6.8,3.2,85,30.16,10.0,WNW,5.8,18.4,N/A,,Overcast,300,2012-11-28 07:53:00
2:13 AM,6.8,3.2,85,30.16,7.0,WNW,9.2,-,N/A,Snow,Light Snow,290,2012-11-28 08:13:00
2:32 AM,6.8,3.2,85,30.17,7.0,WNW,4.6,-,N/A,Snow,Light Snow,300,2012-11-28 08:32:00
2:53 AM,6.8,1.4,79,30.18,5.0,West,9.2,16.1,N/A,Snow,Light Snow,280,2012-11-28 08:53:00
3:13 AM,6.8,1.4,79,30.18,10.0,WNW,8.1,-,N/A,Snow,Light Snow,290,2012-11-28 09:13:00
3:32 AM,6.8,1.4,79,30.18,7.0,WNW,10.4,-,N/A,Snow,Light Snow,290,2012-11-28 09:32:00
3:53 AM,6.8,1.4,79,30.18,7.0,WNW,4.6,-,N/A,Snow,Light Snow,290,2012-11-28 09:53:00
4:13 AM,6.8,1.4,79,30.18,10.0,WNW,9.2,-,N/A,Snow,Light Snow,300,2012-11-28 10:13:00
4:32 AM,6.8,1.4,79,30.18,10.0,WNW,9.2,16.1,N/A,,Overcast,290,2012-11-28 10:32:00
4:53 AM,6.8,1.4,79,30.19,10.0,WNW,5.8,-,N/A,Snow,Light Snow,300,2012-11-28 10:53:00
5:12 AM,6.8,1.4,79,30.19,10.0,WNW,5.8,-,N/A,Snow,Light Snow,300,2012-11-28 11:12:00
5:33 AM,6.8,1.4,79,30.20,10.0,WNW,5.8,-,N/A,Snow,Light Snow,300,2012-11-28 11:33:00
5:52 AM,5.0,1.4,85,30.20,10.0,WNW,6.9,-,N/A,Snow,Light Snow,290,2012-11-28 11:52:00
6:13 AM,5.0,1.4,85,30.20,10.0,West,6.9,-,N/A,,Overcast,280,2012-11-28 12:13:00
6:33 AM,5.0,1.4,85,30.20,10.0,West,8.1,-,N/A,Snow,Light Snow,270,2012-11-28 12:33:00
6:53 AM,5.0,1.4,85,30.20,10.0,West,4.6,-,N/A,,Overcast,270,2012-11-28 12:53:00
7:13 AM,5.0,1.4,85,30.20,10.0,West,4.6,-,N/A,,Overcast,270,2012-11-28 13:13:00
7:33 AM,5.0,1.4,85,30.19,10.0,West,3.5,-,N/A,Snow,Light Snow,270,2012-11-28 13:33:00
7:52 AM,5.0,1.4,85,30.19,10.0,West,4.6,-,N/A,Snow,Light Snow,270,2012-11-28 13:52:00
8:13 AM,6.8,1.4,79,30.19,10.0,West,9.2,-,N/A,,Overcast,260,2012-11-28 14:13:00
8:33 AM,6.8,1.4,79,30.19,10.0,WSW,10.4,16.1,N/A,,Overcast,250,2012-11-28 14:33:00
8:53 AM,6.8,1.4,79,30.19,3.0,WSW,10.4,-,N/A,Snow,Light Snow,250,2012-11-28 14:53:00
9:12 AM,6.8,3.2,85,30.20,2.5,West,12.7,19.6,N/A,Snow,Light Snow,260,2012-11-28 15:12:00
9:33 AM,6.8,3.2,85,30.20,2.5,WSW,8.1,-,N/A,Snow,Light Snow,250,2012-11-28 15:33:00
9:53 AM,8.6,3.2,79,30.19,2.5,WSW,4.6,-,N/A,Snow,Light Snow,250,2012-11-28 15:53:00
10:12 AM,8.6,3.2,79,30.19,3.0,West,5.8,-,N/A,Snow,Light Snow,260,2012-11-28 16:12:00
10:33 AM,10.4,3.2,73,30.19,5.0,West,9.2,-,N/A,Snow,Light Snow,260,2012-11-28 16:33:00
10:53 AM,10.4,5.0,79,30.17,4.0,West,6.9,-,N/A,Snow,Light Snow,260,2012-11-28 16:53:00
11:12 AM,12.2,6.8,79,30.15,7.0,WSW,9.2,-,N/A,Snow,Light Snow,240,2012-11-28 17:12:00
11:33 AM,12.2,6.8,79,30.13,10.0,SSW,6.9,-,N/A,Snow,Light Snow,200,2012-11-28 17:33:00
11:53 AM,14.0,6.8,73,30.13,10.0,SW,10.4,16.1,N/A,,Clear,230,2012-11-28 17:53:00
12:12 PM,15.8,8.6,73,30.12,10.0,SW,8.1,-,N/A,,Clear,230,2012-11-28 18:12:00
12:33 PM,15.8,8.6,73,30.11,10.0,SW,9.2,-,N/A,,Clear,220,2012-11-28 18:33:00
12:53 PM,17.6,10.4,73,30.11,10.0,SW,8.1,17.3,N/A,,Scattered Clouds,230,2012-11-28 18:53:00
1:12 PM,17.6,10.4,73,30.09,10.0,WSW,9.2,-,N/A,,Scattered Clouds,240,2012-11-28 19:12:00
1:33 PM,17.6,12.2,79,30.08,10.0,SW,4.6,-,N/A,,Scattered Clouds,230,2012-11-28 19:33:00
1:53 PM,19.4,12.2,74,30.07,10.0,SW,8.1,-,N/A,,Scattered Clouds,230,2012-11-28 19:53:00
2:12 PM,19.4,14.0,80,30.06,10.0,SW,8.1,-,N/A,,Scattered Clouds,230,2012-11-28 20:12:00
2:33 PM,19.4,14.0,80,30.05,10.0,SSW,11.5,16.1,N/A,,Scattered Clouds,210,2012-11-28 20:33:00
2:53 PM,21.2,15.8,80,30.03,10.0,SW,12.7,17.3,N/A,,Clear,230,2012-11-28 20:53:00
3:12 PM,19.4,15.8,86,30.02,10.0,SSW,8.1,-,N/A,,Clear,210,2012-11-28 21:12:00
3:33 PM,21.2,15.8,80,30.01,10.0,SSW,6.9,-,N/A,,Clear,210,2012-11-28 21:33:00
3:53 PM,21.2,15.8,80,30.00,10.0,SSW,8.1,-,N/A,,Clear,200,2012-11-28 21:53:00
4:12 PM,21.2,15.8,80,30.00,10.0,SSW,6.9,-,N/A,,Clear,200,2012-11-28 22:12:00
4:33 PM,19.4,17.6,93,29.99,10.0,SSW,8.1,-,N/A,,Clear,210,2012-11-28 22:33:00
4:53 PM,21.2,17.6,86,30.00,10.0,SW,8.1,-,N/A,,Clear,220,2012-11-28 22:53:00
5:12 PM,21.2,17.6,86,29.99,10.0,SSW,9.2,-,N/A,,Clear,210,2012-11-28 23:12:00
5:33 PM,21.2,17.6,86,29.98,10.0,SSW,8.1,-,N/A,,Clear,210,2012-11-28 23:33:00
5:52 PM,21.2,17.6,86,29.98,10.0,SW,9.2,18.4,N/A,,Clear,220,2012-11-28 23:52:00
6:13 PM,21.2,17.6,86,30.00,10.0,SW,6.9,-,N/A,,Clear,230,2012-11-29 00:13:00
6:33 PM,21.2,17.6,86,30.01,10.0,WSW,3.5,-,N/A,,Clear,240,2012-11-29 00:33:00
6:53 PM,21.2,19.4,93,30.01,10.0,SW,3.5,-,N/A,,Mostly Cloudy,230,2012-11-29 00:53:00
7:13 PM,21.2,19.4,93,30.01,10.0,SW,3.5,-,N/A,,Overcast,220,2012-11-29 01:13:00
7:33 PM,21.2,19.4,93,30.02,10.0,Calm,Calm,-,N/A,,Overcast,0,2012-11-29 01:33:00
7:53 PM,23.0,19.4,86,30.02,10.0,WSW,3.5,-,N/A,,Overcast,240,2012-11-29 01:53:00
8:13 PM,23.0,19.4,86,30.02,10.0,WSW,4.6,-,N/A,,Overcast,250,2012-11-29 02:13:00
8:32 PM,23.0,19.4,86,30.02,10.0,WSW,5.8,-,N/A,,Overcast,250,2012-11-29 02:32:00
8:53 PM,23.0,21.2,93,30.02,10.0,WSW,5.8,-,N/A,,Overcast,240,2012-11-29 02:53:00
9:13 PM,24.8,21.2,86,30.02,10.0,WSW,6.9,-,N/A,,Overcast,240,2012-11-29 03:13:00
9:32 PM,24.8,21.2,86,30.02,10.0,WSW,6.9,-,N/A,,Overcast,250,2012-11-29 03:32:00
9:53 PM,24.8,21.2,86,30.02,10.0,West,5.8,-,N/A,,Overcast,260,2012-11-29 03:53:00
10:13 PM,24.8,21.2,86,30.03,10.0,WSW,4.6,-,N/A,,Overcast,250,2012-11-29 04:13:00
10:32 PM,24.8,21.2,86,30.03,10.0,West,3.5,-,N/A,,Overcast,260,2012-11-29 04:32:00
10:53 PM,24.8,21.2,86,30.03,10.0,West,3.5,-,N/A,,Overcast,260,2012-11-29 04:53:00
11:13 PM,24.8,21.2,86,30.04,10.0,West,4.6,-,N/A,,Overcast,270,2012-11-29 05:13:00
11:33 PM,24.8,21.2,86,30.04,10.0,NW,6.9,-,N/A,,Overcast,310,2012-11-29 05:33:00
11:53 PM,24.8,21.2,86,30.06,10.0,WNW,5.8,-,N/A,,Overcast,300,2012-11-29 05:53:00